Visingsoe, Sweden

8:16 PM CET on January 25, 2015 (GMT +0100)
Agnetorp Leringen | Change Station
CLOSE
Current Station
Personal Weather Station
Location: Tidaholm, VäSTRA GöTALANDS LäN
Elevation: 505 ft
Nearby Weather Stations

Elev 505 ft 58.19 °N, 14.07 °E | Updated 8 seconds ago

Mostly Cloudy
Mostly Cloudy
29.3 °F
Feels Like 25 °F
N
3.6
Wind Variable Wind from SW
Gusts 4.9 mph

Today
High -- | Low -- °F
--% Chance of Precip.
Yesterday
High -- | Low -- °F
Precip. -- in
8:21 AM 4:08 PM
Waxing Crescent, 35% visible
Pressure 30.12 in
Visibility 6.2 miles
Clouds Mostly Cloudy 500 ft
Windchill 25 °F
Dew Point 25 °F
Humidity 85%
Rainfall 0.00 in
Snow Depth Not available.
UV 0.0 out of 12
Pollen Not available.
Air Quality Not available.
Flu Activity Not available.
METAR ESGJ 251850Z 24003KT 9999 BKN005 M05/M05 Q1020 R19/710170

More Conditions Fewer Conditions

Pressure 30.12 in
Visibility 6.2 miles
Clouds Mostly Cloudy 500 ft
Windchill 25 °F
Dew Point 25 °F
Humidity 85%
Rainfall 0.00 in
Snow Depth Not available.
UV 0.0 out of 12
Pollen Not available.
Air Quality Not available.
Flu Activity Not available.
METAR ESGJ 251850Z 24003KT 9999 BKN005 M05/M05 Q1020 R19/710170

More Conditions Fewer Conditions

10-Day Weather Forecast

Almanac

Astronomy

Jan. 25, 2015 Rise Set
Actual Time
Civil Twilight
Nautical Twilight
Astronomical Twilight
Moon
Length of Visible Light
Length of Day
Tomorrow will be .
, % of the Moon is Illuminated

Today's Extremes

Country Highs Country Lows

Community

WunderPhotos

Upload Photos

1,790,026 photos uploaded!

WunderBlogs® & News

Nearby

Air Quality

  Air Quality AQ Index Pollutant
Not available.

Snow Depth

Station Depth Elevation

Earthquake Activity

City Distance Mag. Time & Date
Minimum magnitude displayed is 2.5.

Coastal Water Temperatures

Place Temperature

Nearby Weather Stations